KPTB

Dinwiddie County Airport

Petersburg, Virginia, USA
METAR KPTB 210515Z AUTO 10003KT 10SM BKN021 24/22 A3006 RMK AO2 T02350220
Observed Flight Rules
Aug-21 @ 05:15 UTC (9 hours ago) Marginal Visual Flight Rules
Wind Visibility Clouds
100° at 3 knots 10 miles
  • Broken at 2,100' AGL
Temperatures Readings
Current 24°C / 75°F
Dewpoint 22°C / 72°F
Humidity 89%
Altimeter 30.06" Hg
Pressure 1018 hPa
Elevation 59
METAR KPTB 210515Z AUTO 10003KT 10SM BKN021 24/22 A3006 RMK AO2 T02350220
Observed Flight Rules
Aug-21 @ 05:15 UTC
(9 hours ago)
MVFR
Wind Visibility
100° at 3 knots 10 miles
Clouds
  • Broken at 2,100' AGL
Temperature Dewpoint
24°C / 75°F 22°C / 72°F
Humidity Altimeter Pressure
89% 30.06" Hg 1018 hPa